Time;durP1;ratioP1;P1;durP2;ratioP2;P2;SDS_P1;SDS_P2;PMS_P1;PMS_P2;Temp;Humidity;BMP_temperature;BMP_pressure;BME280_temperature;BME280_humidity;BME280_pressure;Samples;Min_cycle;Max_cycle;Signal;HPM_P1;HPM_P2
2023/05/04 00:02:19;;;;;;;10.25;4.20;;;5.30;99.90;;;;;;5068023;28;20692;-81
2023/05/04 00:04:45;;;;;;;8.77;4.57;;;5.30;99.90;;;;;;5036813;28;20051;-82
2023/05/04 00:07:11;;;;;;;9.52;4.70;;;5.30;99.90;;;;;;5068617;28;20052;-82
2023/05/04 00:09:36;;;;;;;8.27;3.90;;;5.30;99.90;;;;;;5064716;28;20040;-82
2023/05/04 00:12:02;;;;;;;8.48;3.83;;;5.30;99.90;;;;;;5052396;28;20313;-81
2023/05/04 00:14:28;;;;;;;7.18;4.13;;;5.30;99.90;;;;;;5040533;28;20048;-80
2023/05/04 00:16:54;;;;;;;18.10;4.80;;;5.20;99.90;;;;;;5052055;28;20060;-81
2023/05/04 00:19:19;;;;;;;9.55;4.97;;;5.10;99.90;;;;;;5086266;28;20058;-81
2023/05/04 00:21:45;;;;;;;10.20;4.35;;;5.20;99.90;;;;;;5062095;28;20052;-82
2023/05/04 00:24:11;;;;;;;11.82;4.47;;;5.20;99.90;;;;;;5063067;28;20044;-84
2023/05/04 00:26:36;;;;;;;9.23;4.15;;;5.10;99.90;;;;;;5040907;28;20040;-81
2023/05/04 00:29:02;;;;;;;10.93;5.15;;;5.20;99.90;;;;;;5053235;28;20118;-81
2023/05/04 00:31:28;;;;;;;10.82;4.80;;;5.10;99.90;;;;;;5074440;28;20127;-80
2023/05/04 00:33:54;;;;;;;13.15;4.60;;;5.10;99.90;;;;;;5043585;28;20043;-81
2023/05/04 00:36:19;;;;;;;10.93;4.30;;;5.10;99.90;;;;;;5050939;28;20044;-82
2023/05/04 00:38:53;;;;;;;7.50;4.55;;;5.10;99.90;;;;;;5046122;28;20044;-85
2023/05/04 00:41:20;;;;;;;12.45;4.53;;;5.10;99.90;;;;;;5046904;28;20055;-80
2023/05/04 00:43:46;;;;;;;9.05;4.03;;;5.00;99.90;;;;;;5063983;28;20068;-84
2023/05/04 00:46:13;;;;;;;15.13;5.57;;;5.00;99.90;;;;;;5065664;28;20052;-81
2023/05/04 00:48:43;;;;;;;10.27;4.72;;;5.00;99.90;;;;;;5063545;28;20043;-81
2023/05/04 00:51:11;;;;;;;11.32;4.10;;;5.00;99.90;;;;;;5056641;28;20272;-84
2023/05/04 00:53:38;;;;;;;8.25;4.60;;;4.90;99.90;;;;;;5054588;28;20490;-82
2023/05/04 00:56:05;;;;;;;13.55;4.93;;;5.00;99.90;;;;;;5056243;28;20048;-83
2023/05/04 00:58:32;;;;;;;9.07;4.45;;;4.90;99.90;;;;;;5063272;28;20051;-82
2023/05/04 01:00:57;;;;;;;9.45;4.32;;;4.90;99.90;;;;;;5075968;28;20044;-81
2023/05/04 01:03:25;;;;;;;9.23;4.47;;;4.80;99.90;;;;;;5053400;28;20118;-81
2023/05/04 01:06:25;;;;;;;11.35;4.72;;;4.80;99.90;;;;;;5037996;28;20056;-85
2023/05/04 01:09:02;;;;;;;13.27;5.55;;;4.80;99.90;;;;;;5027926;28;20528;-85
2023/05/04 01:11:50;;;;;;;9.60;4.40;;;4.80;99.90;;;;;;5076841;28;20976;-81
2023/05/04 01:14:20;;;;;;;11.63;4.45;;;4.80;99.90;;;;;;5058475;28;20039;-82
2023/05/04 01:16:46;;;;;;;12.40;4.60;;;4.70;99.90;;;;;;5071531;28;20524;-82
2023/05/04 01:19:11;;;;;;;17.55;5.13;;;4.70;99.90;;;;;;5034404;28;20075;-81
2023/05/04 01:21:37;;;;;;;8.90;4.57;;;4.70;99.90;;;;;;5064838;28;20044;-81
2023/05/04 01:24:05;;;;;;;10.20;4.75;;;4.70;99.90;;;;;;5067564;28;20147;-81
2023/05/04 01:26:36;;;;;;;11.43;4.55;;;4.70;99.90;;;;;;5053583;28;20121;-81
2023/05/04 01:29:24;;;;;;;12.77;5.53;;;4.60;99.90;;;;;;5083971;28;20052;-82
2023/05/04 01:31:52;;;;;;;8.85;4.80;;;4.60;99.90;;;;;;5071025;28;20572;-84
2023/05/04 01:34:20;;;;;;;13.55;5.25;;;4.60;99.90;;;;;;5065390;28;20055;-81
2023/05/04 01:36:46;;;;;;;13.45;4.97;;;4.60;99.90;;;;;;5073349;28;20048;-85
2023/05/04 01:39:12;;;;;;;11.68;4.60;;;4.60;99.90;;;;;;5071971;28;20517;-81
2023/05/04 01:41:38;;;;;;;11.48;5.28;;;4.60;99.90;;;;;;5066932;28;20043;-81
2023/05/04 01:44:04;;;;;;;12.13;4.97;;;4.60;99.90;;;;;;5055520;28;20084;-82
2023/05/04 01:46:30;;;;;;;10.45;4.60;;;4.60;99.90;;;;;;5073388;28;20044;-82
2023/05/04 01:48:56;;;;;;;10.55;4.85;;;4.70;99.90;;;;;;5066084;28;20048;-86
2023/05/04 01:51:21;;;;;;;14.15;5.53;;;4.60;99.90;;;;;;5064461;28;20055;-80
2023/05/04 01:53:47;;;;;;;11.35;5.53;;;4.70;99.90;;;;;;5065245;28;20505;-81
2023/05/04 01:56:13;;;;;;;11.18;4.50;;;4.60;99.90;;;;;;5072597;28;20047;-83
2023/05/04 01:58:39;;;;;;;9.50;4.40;;;4.50;99.90;;;;;;5071209;28;20044;-82
2023/05/04 02:01:05;;;;;;;10.07;5.32;;;4.60;99.90;;;;;;5052602;28;20045;-82
2023/05/04 02:03:31;;;;;;;11.95;5.22;;;4.60;99.90;;;;;;5043661;28;20040;-81
2023/05/04 02:05:56;;;;;;;11.80;5.43;;;4.70;1.00;;;;;;5043071;28;20047;-81
2023/05/04 02:08:22;;;;;;;13.13;5.20;;;4.90;1.00;;;;;;5060131;28;20060;-83
2023/05/04 02:10:48;;;;;;;9.73;5.07;;;4.60;1.00;;;;;;5053748;28;20054;-81
2023/05/04 02:13:13;;;;;;;9.82;4.97;;;4.70;1.00;;;;;;5055575;28;20112;-82
2023/05/04 02:15:40;;;;;;;11.65;4.88;;;4.70;1.00;;;;;;5078641;28;20071;-81
2023/05/04 02:18:06;;;;;;;11.25;5.45;;;4.70;1.00;;;;;;5064665;28;20053;-85
2023/05/04 02:20:31;;;;;;;7.85;5.00;;;4.60;1.00;;;;;;5068227;28;20485;-81
2023/05/04 02:22:57;;;;;;;8.55;4.43;;;4.70;1.00;;;;;;5051472;28;20052;-81
2023/05/04 02:25:23;;;;;;;15.45;6.25;;;4.80;1.00;;;;;;5081365;28;20390;-80
2023/05/04 02:27:48;;;;;;;10.48;4.90;;;4.70;1.00;;;;;;5068223;28;20053;-80
2023/05/04 02:30:15;;;;;;;10.30;4.60;;;4.80;1.00;;;;;;5082706;28;20367;-81
2023/05/04 02:32:40;;;;;;;13.48;5.75;;;4.70;1.00;;;;;;5067411;28;20050;-81
2023/05/04 02:35:07;;;;;;;9.23;5.00;;;4.70;1.00;;;;;;5068130;28;20048;-84
2023/05/04 02:37:33;;;;;;;13.18;5.10;;;4.70;1.00;;;;;;5069173;28;20186;-81
2023/05/04 02:39:59;;;;;;;9.85;5.10;;;4.70;1.00;;;;;;5062727;28;20057;-81
2023/05/04 02:42:24;;;;;;;10.55;5.57;;;4.70;1.00;;;;;;5067860;28;20039;-81
2023/05/04 02:44:50;;;;;;;11.27;4.82;;;4.70;1.00;;;;;;5079778;28;20766;-82
2023/05/04 02:47:16;;;;;;;14.80;5.78;;;4.70;1.00;;;;;;5090862;28;20278;-81
2023/05/04 02:49:42;;;;;;;11.43;5.35;;;4.70;1.00;;;;;;5043985;28;20056;-82
2023/05/04 02:52:08;;;;;;;10.70;5.28;;;4.60;1.00;;;;;;5042221;28;20048;-82
2023/05/04 02:54:33;;;;;;;9.50;5.50;;;4.80;1.00;;;;;;5065611;28;20071;-81
2023/05/04 02:56:59;;;;;;;16.08;6.68;;;4.70;1.00;;;;;;5061478;28;20420;-81
2023/05/04 02:59:25;;;;;;;14.18;6.45;;;4.60;1.00;;;;;;5069840;28;20048;-81
2023/05/04 03:01:51;;;;;;;14.57;5.43;;;4.70;1.00;;;;;;5063826;28;20090;-81
2023/05/04 03:04:16;;;;;;;11.70;5.38;;;4.60;1.00;;;;;;5068176;28;20080;-81
2023/05/04 03:06:42;;;;;;;15.00;5.43;;;4.70;1.00;;;;;;5066641;28;20070;-80
2023/05/04 03:09:08;;;;;;;10.90;6.15;;;4.70;1.00;;;;;;5051324;28;20048;-86
2023/05/04 03:11:34;;;;;;;13.95;5.95;;;4.60;1.00;;;;;;5040061;28;20097;-82
2023/05/04 03:14:00;;;;;;;12.35;5.93;;;4.70;1.00;;;;;;5067207;28;20033;-81
2023/05/04 03:16:25;;;;;;;16.42;6.30;;;4.70;1.00;;;;;;5045648;28;20142;-80
2023/05/04 03:18:51;;;;;;;15.10;6.43;;;4.70;1.00;;;;;;5067658;28;20074;-81
2023/05/04 03:21:17;;;;;;;13.32;5.75;;;4.80;1.00;;;;;;5056782;28;20052;-81
2023/05/04 03:23:42;;;;;;;10.63;5.60;;;4.80;1.00;;;;;;5074686;28;20048;-81
2023/05/04 03:26:08;;;;;;;12.68;5.50;;;4.80;1.00;;;;;;5060918;28;20498;-81
2023/05/04 03:28:34;;;;;;;13.18;6.60;;;4.80;1.00;;;;;;5050185;28;20056;-82
2023/05/04 03:31:00;;;;;;;17.15;6.43;;;4.90;1.00;;;;;;5065303;28;20118;-81
2023/05/04 03:33:25;;;;;;;14.10;5.78;;;4.80;1.00;;;;;;5048939;28;20051;-81
2023/05/04 03:35:51;;;;;;;13.20;6.03;;;5.00;1.00;;;;;;5049855;28;20061;-81
2023/05/04 03:38:17;;;;;;;13.75;6.47;;;4.90;1.00;;;;;;5020619;28;20521;-80
2023/05/04 03:40:42;;;;;;;12.60;6.25;;;4.90;1.00;;;;;;5042885;28;20062;-83
2023/05/04 03:43:08;;;;;;;17.48;6.88;;;4.90;1.00;;;;;;5048526;28;20044;-81
2023/05/04 03:45:34;;;;;;;13.52;6.03;;;4.80;1.00;;;;;;5051621;28;20036;-80
2023/05/04 03:48:00;;;;;;;12.23;6.13;;;4.90;1.00;;;;;;5039914;28;20044;-81
2023/05/04 03:50:26;;;;;;;15.27;6.38;;;4.90;1.00;;;;;;5074308;28;20041;-80
2023/05/04 03:52:51;;;;;;;12.10;5.57;;;5.00;1.00;;;;;;5048995;28;20067;-80
2023/05/04 03:55:18;;;;;;;15.27;6.45;;;5.00;1.00;;;;;;5048704;28;20048;-82
2023/05/04 03:57:43;;;;;;;17.40;6.28;;;5.00;1.00;;;;;;5059871;28;20048;-81
2023/05/04 04:00:09;;;;;;;12.27;6.32;;;5.00;1.00;;;;;;5052353;28;20094;-81
2023/05/04 04:02:35;;;;;;;10.15;5.97;;;5.00;1.00;;;;;;5046850;28;20485;-82
2023/05/04 04:05:01;;;;;;;17.52;6.63;;;5.10;1.00;;;;;;5011515;28;20140;-82
2023/05/04 04:07:26;;;;;;;13.05;5.93;;;5.20;1.00;;;;;;5039280;28;20079;-81
2023/05/04 04:09:52;;;;;;;13.98;5.80;;;5.10;1.00;;;;;;5066002;28;20099;-83
2023/05/04 04:12:19;;;;;;;15.73;6.72;;;5.10;1.00;;;;;;5075570;28;20505;-84
2023/05/04 04:14:46;;;;;;;12.75;6.20;;;5.10;1.00;;;;;;5067095;28;20044;-81
2023/05/04 04:17:11;;;;;;;14.23;6.35;;;5.20;1.00;;;;;;5064323;28;20057;-81
2023/05/04 04:19:37;;;;;;;11.60;5.70;;;5.20;1.00;;;;;;5057544;28;20494;-81
2023/05/04 04:22:03;;;;;;;13.93;6.88;;;5.20;1.00;;;;;;5045023;28;20129;-80
2023/05/04 04:24:28;;;;;;;13.25;6.50;;;5.20;1.00;;;;;;5050106;28;20052;-80
2023/05/04 04:26:54;;;;;;;13.35;6.63;;;5.20;1.00;;;;;;5066520;28;20047;-82
2023/05/04 04:29:20;;;;;;;12.65;6.05;;;5.30;1.00;;;;;;5067626;28;20036;-83
2023/05/04 04:31:45;;;;;;;12.70;6.63;;;5.20;1.00;;;;;;5047240;28;20406;-80
2023/05/04 04:34:11;;;;;;;16.08;6.47;;;5.30;1.00;;;;;;5064350;28;20110;-81
2023/05/04 04:36:37;;;;;;;13.02;6.75;;;5.30;1.00;;;;;;5054809;28;20102;-81
2023/05/04 04:39:04;;;;;;;15.02;6.88;;;5.30;1.00;;;;;;5065051;28;20048;-82
2023/05/04 04:41:30;;;;;;;14.77;6.53;;;5.30;1.00;;;;;;5069186;28;20644;-81
2023/05/04 04:43:56;;;;;;;14.45;6.40;;;5.40;1.00;;;;;;5064492;28;20041;-81
2023/05/04 04:46:22;;;;;;;13.23;6.47;;;5.30;1.00;;;;;;5081360;28;20048;-83
2023/05/04 04:48:48;;;;;;;13.40;6.57;;;5.30;1.00;;;;;;5074480;28;20049;-80
2023/05/04 04:51:13;;;;;;;14.00;6.20;;;5.30;1.00;;;;;;5066114;28;20076;-80
2023/05/04 04:53:39;;;;;;;14.45;6.97;;;5.40;1.00;;;;;;5046692;28;20094;-81
2023/05/04 04:56:06;;;;;;;17.45;6.68;;;5.40;1.00;;;;;;5067628;28;20446;-80
2023/05/04 04:58:32;;;;;;;14.10;6.57;;;5.40;1.00;;;;;;5051040;28;20036;-81
2023/05/04 05:00:58;;;;;;;11.23;6.47;;;5.50;1.00;;;;;;5077701;28;20052;-80
2023/05/04 05:03:24;;;;;;;13.55;6.80;;;5.50;1.00;;;;;;5072483;28;20037;-80
2023/05/04 05:05:50;;;;;;;14.95;7.28;;;5.50;1.00;;;;;;5044707;28;20044;-80
2023/05/04 05:08:16;;;;;;;14.82;6.43;;;5.60;1.00;;;;;;5049559;28;20047;-79
2023/05/04 05:10:42;;;;;;;13.88;6.47;;;5.60;1.00;;;;;;5058169;28;20075;-79
2023/05/04 05:13:08;;;;;;;16.25;7.13;;;5.70;1.00;;;;;;5076893;28;20428;-80
2023/05/04 05:15:34;;;;;;;14.43;7.85;;;5.70;1.00;;;;;;5068928;28;20093;-84
2023/05/04 05:18:00;;;;;;;15.43;7.60;;;5.80;1.00;;;;;;5068118;28;20059;-84
2023/05/04 05:20:26;;;;;;;12.50;6.35;;;5.80;1.00;;;;;;5061540;28;20071;-83
2023/05/04 05:22:51;;;;;;;17.10;6.88;;;5.90;1.00;;;;;;5066160;28;20056;-82
2023/05/04 05:25:18;;;;;;;19.08;7.00;;;6.00;1.00;;;;;;5042560;28;20090;-84
2023/05/04 05:27:44;;;;;;;14.75;6.60;;;6.00;1.00;;;;;;5032509;28;20510;-84
2023/05/04 05:30:10;;;;;;;16.52;6.65;;;6.00;1.00;;;;;;5072695;28;20071;-81
2023/05/04 05:32:36;;;;;;;16.30;7.20;;;6.10;1.00;;;;;;5052292;28;20052;-80
2023/05/04 05:35:05;;;;;;;12.43;6.22;;;6.10;1.00;;;;;;5052197;28;20048;-82
2023/05/04 05:37:31;;;;;;;14.50;6.90;;;6.20;1.00;;;;;;5071072;28;20040;-88
2023/05/04 05:39:57;;;;;;;15.30;6.55;;;6.20;99.90;;;;;;5086128;28;20559;-81
2023/05/04 05:42:23;;;;;;;13.60;6.55;;;6.30;99.90;;;;;;5055143;28;20079;-83
2023/05/04 05:44:49;;;;;;;12.52;6.05;;;6.30;99.90;;;;;;5060262;28;20048;-81
2023/05/04 05:47:15;;;;;;;12.80;6.53;;;6.30;99.90;;;;;;5071695;28;20132;-83
2023/05/04 05:49:41;;;;;;;12.30;6.47;;;6.40;99.90;;;;;;5073614;28;20127;-81
2023/05/04 05:52:07;;;;;;;15.38;6.43;;;6.50;99.90;;;;;;5071883;28;20048;-80
2023/05/04 05:54:34;;;;;;;11.32;5.78;;;6.50;99.90;;;;;;5065190;28;20073;-84
2023/05/04 05:57:00;;;;;;;12.40;6.15;;;6.60;99.90;;;;;;5055718;28;20032;-85
2023/05/04 05:59:26;;;;;;;11.52;5.90;;;6.60;99.90;;;;;;5064588;28;20063;-82
2023/05/04 06:01:52;;;;;;;11.85;6.10;;;6.80;99.90;;;;;;5060730;28;20407;-81
2023/05/04 06:04:17;;;;;;;12.48;6.47;;;6.90;99.90;;;;;;5071103;28;20068;-83
2023/05/04 06:06:43;;;;;;;11.18;6.40;;;7.00;99.90;;;;;;5051749;28;20049;-84
2023/05/04 06:09:09;;;;;;;12.20;7.00;;;7.20;99.90;;;;;;5071730;28;20456;-85
2023/05/04 06:11:35;;;;;;;11.27;6.05;;;7.30;99.90;;;;;;5055368;28;20045;-84
2023/05/04 06:14:01;;;;;;;8.90;5.78;;;7.40;99.90;;;;;;5040989;28;20062;-83
2023/05/04 06:16:26;;;;;;;12.23;6.05;;;7.60;99.90;;;;;;5035168;28;20487;-86
2023/05/04 06:18:52;;;;;;;10.98;5.63;;;7.70;99.90;;;;;;5070853;28;20045;-83
2023/05/04 06:21:18;;;;;;;14.77;6.25;;;7.90;99.90;;;;;;5055107;28;20109;-83
2023/05/04 06:23:44;;;;;;;10.90;5.82;;;7.90;99.90;;;;;;5052878;28;20537;-83
2023/05/04 06:26:10;;;;;;;13.65;6.15;;;8.10;99.90;;;;;;5061505;28;20055;-84
2023/05/04 06:28:35;;;;;;;12.10;5.65;;;8.10;99.90;;;;;;5054541;28;20052;-85
2023/05/04 06:31:02;;;;;;;11.88;5.80;;;8.30;99.90;;;;;;5067507;28;20048;-81
2023/05/04 06:33:28;;;;;;;12.98;6.10;;;8.40;99.90;;;;;;5054482;28;20371;-81
2023/05/04 06:35:53;;;;;;;10.35;5.68;;;8.50;99.90;;;;;;5050911;28;20110;-84
2023/05/04 06:38:20;;;;;;;11.77;5.88;;;8.60;99.90;;;;;;5053264;28;20040;-85
2023/05/04 06:40:46;;;;;;;9.70;5.38;;;8.60;99.90;;;;;;5070175;28;20057;-85
2023/05/04 06:43:12;;;;;;;14.10;6.03;;;8.70;99.90;;;;;;5051364;28;20052;-83
2023/05/04 06:45:38;;;;;;;11.85;5.72;;;8.80;97.70;;;;;;5067088;28;20406;-82
2023/05/04 06:48:04;;;;;;;13.65;5.45;;;8.90;1.00;;;;;;5070145;28;20083;-83
2023/05/04 06:50:32;;;;;;;11.38;5.30;;;9.10;1.00;;;;;;5065332;28;20521;-82
2023/05/04 06:53:08;;;;;;;14.40;6.20;;;9.20;1.00;;;;;;5079445;28;20048;-82
2023/05/04 06:55:35;;;;;;;11.50;5.28;;;9.20;1.00;;;;;;5068984;28;20563;-83
2023/05/04 06:58:02;;;;;;;9.15;5.63;;;9.30;1.00;;;;;;5075376;28;20086;-82
2023/05/04 07:00:28;;;;;;;9.95;5.35;;;9.40;1.00;;;;;;5068124;28;20072;-83
2023/05/04 07:02:54;;;;;;;12.48;5.65;;;9.50;1.00;;;;;;5065781;28;20064;-82
2023/05/04 07:05:21;;;;;;;12.35;6.28;;;9.60;1.00;;;;;;5069375;28;20098;-82
2023/05/04 07:07:47;;;;;;;11.52;5.75;;;9.70;1.00;;;;;;5069338;28;20059;-83
2023/05/04 07:10:13;;;;;;;11.63;5.80;;;9.80;1.00;;;;;;5069416;28;20102;-82
2023/05/04 07:12:40;;;;;;;11.52;6.18;;;9.90;1.00;;;;;;5053137;28;20109;-82
2023/05/04 07:15:07;;;;;;;12.55;5.65;;;10.00;1.00;;;;;;5069587;28;20036;-82
2023/05/04 07:17:33;;;;;;;14.82;5.57;;;10.10;1.00;;;;;;5050538;28;20498;-82
2023/05/04 07:20:06;;;;;;;11.40;6.10;;;10.30;1.00;;;;;;5068357;28;20058;-82
2023/05/04 07:22:32;;;;;;;10.52;5.75;;;10.40;1.00;;;;;;5067040;28;20051;-83
2023/05/04 07:24:58;;;;;;;10.52;5.65;;;10.60;1.00;;;;;;5068388;28;20048;-81
2023/05/04 07:27:24;;;;;;;8.23;5.40;;;10.70;1.00;;;;;;5053752;28;20048;-82
2023/05/04 07:29:50;;;;;;;12.70;5.90;;;10.90;1.00;;;;;;5048441;28;20839;-81
2023/05/04 07:32:16;;;;;;;8.73;5.97;;;11.00;1.00;;;;;;5070526;28;20063;-81
2023/05/04 07:34:45;;;;;;;8.70;5.25;;;11.20;1.00;;;;;;5065419;28;20098;-81
2023/05/04 07:37:11;;;;;;;10.45;5.78;;;11.30;1.00;;;;;;5070331;28;20090;-81
2023/05/04 07:39:37;;;;;;;11.43;5.97;;;11.40;1.00;;;;;;5067141;28;20391;-81
2023/05/04 07:42:04;;;;;;;11.80;5.40;;;11.50;1.00;;;;;;5070453;28;20051;-81
2023/05/04 07:44:30;;;;;;;11.02;5.57;;;11.50;1.00;;;;;;5051690;28;20075;-80
2023/05/04 07:47:00;;;;;;;13.95;6.03;;;11.50;1.00;;;;;;5068663;28;20055;-83
2023/05/04 07:49:26;;;;;;;8.32;5.28;;;11.60;1.00;;;;;;5017681;28;20048;-82
2023/05/04 07:51:52;;;;;;;9.43;5.88;;;11.60;1.00;;;;;;5045951;28;20060;-84
2023/05/04 07:54:17;;;;;;;10.02;5.43;;;11.70;1.00;;;;;;5068472;28;20052;-81
2023/05/04 07:56:44;;;;;;;12.13;5.60;;;11.70;1.00;;;;;;5050314;28;20062;-82
2023/05/04 07:59:10;;;;;;;11.90;5.68;;;11.80;1.00;;;;;;5065364;28;20051;-82
2023/05/04 08:01:35;;;;;;;8.10;5.18;;;11.90;1.00;;;;;;5059396;28;20053;-82
2023/05/04 08:04:01;;;;;;;10.98;4.95;;;12.00;1.00;;;;;;5057961;28;20044;-81
2023/05/04 08:06:27;;;;;;;11.70;5.07;;;12.10;1.00;;;;;;5063261;28;20049;-81
2023/05/04 08:08:52;;;;;;;10.45;4.88;;;12.20;1.00;;;;;;5065676;28;20393;-88
2023/05/04 08:11:18;;;;;;;6.90;4.68;;;12.20;1.00;;;;;;5080800;28;20296;-81
2023/05/04 08:13:45;;;;;;;8.10;4.88;;;12.30;1.00;;;;;;5071993;28;20558;-81
2023/05/04 08:16:11;;;;;;;8.50;5.20;;;12.50;1.00;;;;;;5058533;28;20088;-81
2023/05/04 08:18:37;;;;;;;9.52;4.70;;;12.60;1.00;;;;;;5063049;28;20450;-81
2023/05/04 08:21:03;;;;;;;9.77;4.97;;;12.70;1.00;;;;;;5071091;28;20040;-82
2023/05/04 08:23:30;;;;;;;8.30;4.55;;;12.80;1.00;;;;;;5051536;28;20083;-81
2023/05/04 08:25:56;;;;;;;8.70;4.43;;;13.00;1.00;;;;;;5083685;28;20040;-85
2023/05/04 08:28:22;;;;;;;7.25;4.72;;;13.20;1.00;;;;;;5053368;28;20643;-81
2023/05/04 08:30:48;;;;;;;11.93;4.85;;;13.50;1.00;;;;;;5063888;28;20063;-81
2023/05/04 08:33:13;;;;;;;9.90;5.22;;;13.70;1.00;;;;;;5052138;28;20049;-80
2023/05/04 08:35:39;;;;;;;8.80;4.40;;;14.00;1.00;;;;;;5068912;28;20048;-80
2023/05/04 08:38:06;;;;;;;9.38;4.80;;;14.20;1.00;;;;;;5065830;28;20036;-80
2023/05/04 08:40:32;;;;;;;8.88;4.70;;;14.40;1.00;;;;;;5069391;28;20049;-80
2023/05/04 08:42:58;;;;;;;9.13;5.05;;;14.70;1.00;;;;;;5052435;28;20070;-89
2023/05/04 08:45:24;;;;;;;12.85;4.97;;;15.00;1.00;;;;;;5066102;28;20110;-81
2023/05/04 08:47:50;;;;;;;7.90;4.80;;;15.60;1.00;;;;;;5066121;28;20045;-80
2023/05/04 08:50:16;;;;;;;6.55;4.68;;;16.00;1.00;;;;;;5060443;28;20447;-82
2023/05/04 08:52:46;;;;;;;12.13;4.75;;;16.60;1.00;;;;;;5030878;28;20053;-81
2023/05/04 08:55:12;;;;;;;7.82;4.38;;;17.20;1.00;;;;;;5068482;28;20673;-81
2023/05/04 08:57:41;;;;;;;6.30;4.28;;;17.60;1.00;;;;;;5052258;28;20069;-83
2023/05/04 09:00:08;;;;;;;9.65;4.38;;;18.00;1.00;;;;;;5066174;28;20041;-84
2023/05/04 09:02:35;;;;;;;8.88;4.75;;;18.20;1.00;;;;;;5060435;28;20045;-83
2023/05/04 09:05:01;;;;;;;8.40;4.57;;;18.40;1.00;;;;;;5071400;28;20051;-84
2023/05/04 09:07:26;;;;;;;5.82;4.40;;;18.70;1.00;;;;;;5061440;28;20131;-82
2023/05/04 09:09:53;;;;;;;7.90;4.13;;;19.00;1.00;;;;;;5054593;28;20046;-82
2023/05/04 09:12:18;;;;;;;7.63;4.20;;;19.30;1.00;;;;;;5061295;28;20093;-82
2023/05/04 09:14:47;;;;;;;7.18;3.72;;;19.70;1.00;;;;;;5052235;28;20048;-83
2023/05/04 09:17:24;;;;;;;11.77;4.60;;;20.00;1.00;;;;;;5052058;28;20048;-83
2023/05/04 09:20:00;;;;;;;7.75;4.35;;;20.30;1.00;;;;;;5051858;28;20139;-82
2023/05/04 09:22:26;;;;;;;7.90;4.45;;;20.60;1.00;;;;;;5052663;28;20109;-82
2023/05/04 09:24:53;;;;;;;6.65;4.00;;;21.00;1.00;;;;;;5053777;28;20048;-82
2023/05/04 09:27:19;;;;;;;7.28;3.90;;;21.30;1.00;;;;;;5050525;28;20258;-82
2023/05/04 09:29:53;;;;;;;6.45;3.55;;;21.40;1.00;;;;;;5060489;28;20409;-81
2023/05/04 09:32:18;;;;;;;6.78;3.58;;;21.40;1.00;;;;;;5053469;28;20040;-82
2023/05/04 09:34:48;;;;;;;7.45;3.60;;;21.30;1.00;;;;;;5044351;28;20604;-82
2023/05/04 09:37:14;;;;;;;6.47;3.70;;;21.30;1.00;;;;;;5062319;28;20040;-82
2023/05/04 09:39:57;;;;;;;5.90;3.97;;;21.40;1.00;;;;;;5040871;28;20048;-81
2023/05/04 09:42:24;;;;;;;7.15;4.00;;;21.70;1.00;;;;;;5070205;28;20044;-81
2023/05/04 09:45:09;;;;;;;7.57;3.80;;;22.00;1.00;;;;;;5069431;28;20052;-81
2023/05/04 09:47:39;;;;;;;7.60;3.60;;;22.50;1.00;;;;;;5076983;28;20083;-82
2023/05/04 09:50:25;;;;;;;8.55;3.83;;;22.90;1.00;;;;;;5052290;28;20175;-85
2023/05/04 09:52:52;;;;;;;6.97;3.90;;;23.20;1.00;;;;;;5059692;28;20130;-82
2023/05/04 09:55:19;;;;;;;6.75;3.42;;;23.80;1.00;;;;;;5047917;28;20444;-83
2023/05/04 09:57:46;;;;;;;7.00;3.80;;;24.30;1.00;;;;;;5079474;28;20135;-83
2023/05/04 10:00:17;;;;;;;5.57;3.60;;;24.90;1.00;;;;;;5041149;28;20656;-82
2023/05/04 10:02:46;;;;;;;4.25;3.42;;;25.20;1.00;;;;;;5053076;28;20048;-84
2023/05/04 10:05:17;;;;;;;5.68;3.65;;;25.00;1.00;;;;;;5080446;28;20105;-84
2023/05/04 10:07:43;;;;;;;6.80;4.00;;;24.90;1.00;;;;;;5072027;28;20119;-83
2023/05/04 10:10:11;;;;;;;7.57;3.90;;;24.50;1.00;;;;;;5071687;28;20052;-87
2023/05/04 10:12:37;;;;;;;6.78;3.58;;;24.30;1.00;;;;;;5071727;28;20040;-84
2023/05/04 10:15:09;;;;;;;6.22;3.90;;;24.50;1.00;;;;;;5053342;28;20048;-82
2023/05/04 10:17:59;;;;;;;4.57;3.20;;;24.80;1.00;;;;;;5060540;28;20057;-84
2023/05/04 10:20:35;;;;;;;6.72;3.95;;;25.30;1.00;;;;;;5070294;28;20049;-82
2023/05/04 10:23:00;;;;;;;;;;;25.90;1.00;;;;;;5081884;28;20040;-83
2023/05/04 10:25:29;;;;;;;8.23;3.40;;;26.20;1.00;;;;;;5072037;28;20267;-83
2023/05/04 10:28:33;;;;;;;5.68;3.80;;;26.50;1.00;;;;;;5053668;28;20378;-83
2023/05/04 10:30:59;;;;;;;7.00;3.22;;;26.60;1.00;;;;;;5059067;28;20056;-84
2023/05/04 10:33:25;;;;;;;5.03;3.33;;;26.90;1.00;;;;;;5070159;28;20503;-84
2023/05/04 10:35:52;;;;;;;6.53;3.78;;;27.00;1.00;;;;;;5069476;28;20056;-83
2023/05/04 10:38:18;;;;;;;5.97;3.30;;;27.00;1.00;;;;;;5048809;28;20072;-83
2023/05/04 10:40:47;;;;;;;5.38;2.95;;;27.20;1.00;;;;;;5070237;28;20133;-83
2023/05/04 10:43:24;;;;;;;5.25;3.53;;;27.60;1.00;;;;;;5065150;28;20102;-87
2023/05/04 10:45:50;;;;;;;4.78;3.30;;;28.00;1.00;;;;;;5070723;28;20072;-83
2023/05/04 10:48:16;;;;;;;4.50;3.40;;;28.40;1.00;;;;;;5063481;28;20090;-85
2023/05/04 10:50:45;;;;;;;7.47;4.10;;;28.80;1.00;;;;;;5065820;28;20044;-82
2023/05/04 10:53:13;;;;;;;6.03;3.17;;;28.70;1.00;;;;;;5062940;28;20493;-83
2023/05/04 10:55:44;;;;;;;6.28;3.17;;;28.40;1.00;;;;;;5053473;28;20151;-82
2023/05/04 10:58:13;;;;;;;6.35;3.40;;;28.20;1.00;;;;;;5061451;28;20049;-82
2023/05/04 11:00:45;;;;;;;7.35;3.95;;;28.20;1.00;;;;;;5067802;28;20056;-82
2023/05/04 11:03:12;;;;;;;7.53;3.38;;;28.50;1.00;;;;;;5059848;28;20067;-82
2023/05/04 11:05:46;;;;;;;5.82;3.53;;;28.50;1.00;;;;;;5048010;28;20055;-82
2023/05/04 11:08:25;;;;;;;6.03;3.50;;;28.60;1.00;;;;;;5068148;28;20051;-83
2023/05/04 11:11:05;;;;;;;6.65;3.67;;;28.90;1.00;;;;;;5068919;28;20048;-82
2023/05/04 11:13:39;;;;;;;4.82;3.25;;;28.90;1.00;;;;;;5069683;28;20405;-82
2023/05/04 11:16:05;;;;;;;4.57;3.10;;;28.80;1.00;;;;;;5068845;28;20056;-83
2023/05/04 11:18:33;;;;;;;4.00;3.60;;;28.60;1.00;;;;;;5068000;28;20051;-83
2023/05/04 11:20:59;;;;;;;6.68;3.35;;;28.70;1.00;;;;;;5066473;28;20129;-82
2023/05/04 11:23:27;;;;;;;5.68;2.65;;;28.90;1.00;;;;;;5068541;28;20044;-83
2023/05/04 11:25:53;;;;;;;7.43;2.80;;;29.20;1.00;;;;;;5071067;28;20060;-83
2023/05/04 11:28:29;;;;;;;5.20;3.17;;;29.50;1.00;;;;;;5070110;28;20531;-86
2023/05/04 11:30:56;;;;;;;5.95;2.80;;;29.70;1.00;;;;;;5061164;28;20090;-83
2023/05/04 11:33:22;;;;;;;6.20;3.20;;;30.20;1.00;;;;;;5068080;28;20060;-89
2023/05/04 11:35:47;;;;;;;6.28;3.00;;;30.70;1.00;;;;;;5065102;28;20367;-83
2023/05/04 11:38:18;;;;;;;5.47;3.08;;;30.90;1.00;;;;;;5067447;28;20062;-83
2023/05/04 11:40:49;;;;;;;4.88;2.90;;;31.00;1.00;;;;;;5051593;28;20051;-83
2023/05/04 11:43:16;;;;;;;4.18;2.65;;;31.00;1.00;;;;;;5065746;28;20993;-84
2023/05/04 11:45:42;;;;;;;4.13;2.80;;;30.80;1.00;;;;;;5068303;28;20052;-82
2023/05/04 11:48:08;;;;;;;4.38;2.58;;;30.40;1.00;;;;;;5068769;28;20182;-82
2023/05/04 11:50:34;;;;;;;7.97;3.20;;;30.10;1.00;;;;;;5066927;28;20442;-88
2023/05/04 11:53:05;;;;;;;8.20;3.20;;;29.80;1.00;;;;;;5068430;28;20133;-83
2023/05/04 11:55:31;;;;;;;4.03;2.63;;;29.80;1.00;;;;;;5067071;28;20067;-83
2023/05/04 11:58:13;;;;;;;5.80;3.13;;;29.70;1.00;;;;;;5067273;28;20052;-82
2023/05/04 12:00:40;;;;;;;4.28;2.72;;;29.60;1.00;;;;;;5064504;28;20040;-83
2023/05/04 12:03:14;;;;;;;5.55;2.78;;;29.40;1.00;;;;;;5063034;28;20135;-83
2023/05/04 12:05:46;;;;;;;5.47;2.55;;;29.60;1.00;;;;;;5060868;28;20398;-82
2023/05/04 12:08:30;;;;;;;4.53;2.75;;;29.80;1.00;;;;;;5067283;28;20073;-83
2023/05/04 12:11:24;;;;;;;4.20;2.30;;;29.70;1.00;;;;;;5064497;28;20040;-83
2023/05/04 12:14:08;;;;;;;6.03;3.08;;;30.00;1.00;;;;;;5060926;28;20058;-82
2023/05/04 12:16:34;;;;;;;5.57;2.70;;;30.60;1.00;;;;;;5071050;28;20508;-82
2023/05/04 12:19:05;;;;;;;5.22;2.90;;;31.20;1.00;;;;;;5067414;28;20051;-82
2023/05/04 12:21:32;;;;;;;4.90;2.50;;;31.70;1.00;;;;;;5067657;28;20070;-82
2023/05/04 12:23:58;;;;;;;8.30;2.90;;;31.80;1.00;;;;;;5069780;28;20044;-83
2023/05/04 12:26:24;;;;;;;8.05;2.42;;;31.80;1.00;;;;;;5056007;28;20451;-83
2023/05/04 12:28:50;;;;;;;3.72;2.35;;;31.70;1.00;;;;;;5052575;28;20083;-82
2023/05/04 12:31:16;;;;;;;7.55;2.35;;;32.00;1.00;;;;;;5073757;28;20087;-83
2023/05/04 12:33:41;;;;;;;6.82;2.85;;;32.20;1.00;;;;;;5031995;28;20041;-82
2023/05/04 12:36:07;;;;;;;4.88;2.85;;;32.50;1.00;;;;;;5066223;28;20546;-86
2023/05/04 12:38:33;;;;;;;3.88;1.98;;;32.60;1.00;;;;;;5050506;28;20047;-82
2023/05/04 12:41:01;;;;;;;3.92;2.22;;;32.60;1.00;;;;;;5064849;28;20078;-84
2023/05/04 12:43:27;;;;;;;3.90;2.28;;;32.80;1.00;;;;;;5068321;28;20075;-83
2023/05/04 12:45:53;;;;;;;4.22;2.35;;;32.90;1.00;;;;;;5083173;28;20044;-81
2023/05/04 12:48:22;;;;;;;6.18;2.40;;;33.10;1.00;;;;;;5072219;28;20040;-80
2023/05/04 12:50:49;;;;;;;6.88;3.17;;;33.50;1.00;;;;;;5076344;28;20093;-80
2023/05/04 12:53:16;;;;;;;6.57;2.42;;;33.80;1.00;;;;;;5071473;28;20048;-81
2023/05/04 12:55:42;;;;;;;4.15;2.95;;;33.80;1.00;;;;;;5037664;28;20056;-81
2023/05/04 12:58:08;;;;;;;6.25;2.63;;;33.50;1.00;;;;;;5075480;28;20052;-81